createdAt,value
2018-11-21T00:00:34.809Z,16.17
2018-11-21T00:03:04.416Z,15.13
2018-11-21T00:13:01.653Z,15.50
2018-11-21T00:15:31.061Z,15.07
2018-11-21T00:18:00.548Z,15.50
2018-11-21T00:20:48.543Z,15.17
2018-11-21T00:23:17.112Z,15.83
2018-11-21T00:26:07.794Z,15.97
2018-11-21T00:28:36.553Z,14.43
2018-11-21T00:31:06.876Z,14.87
2018-11-21T00:33:36.717Z,14.93
2018-11-21T00:36:06.135Z,15.80
2018-11-21T00:38:46.401Z,12.73
2018-11-21T00:41:34.814Z,15.07
2018-11-21T00:44:03.998Z,14.97
2018-11-21T00:46:34.209Z,15.03
2018-11-21T00:49:03.823Z,14.30
2018-11-21T00:51:33.510Z,15.77
2018-11-21T00:54:02.892Z,15.70
2018-11-21T00:56:32.440Z,15.57
2018-11-21T00:59:04.495Z,16.03
2018-11-21T01:01:31.470Z,13.33
2018-11-21T01:04:03.439Z,16.60
2018-11-21T01:06:32.831Z,16.07
2018-11-21T01:09:02.316Z,15.60
2018-11-21T01:11:31.389Z,16.10
2018-11-21T01:14:02.190Z,16.00
2018-11-21T01:16:31.631Z,16.40
2018-11-21T01:19:03.908Z,15.97
2018-11-21T01:21:33.211Z,15.67
2018-11-21T01:24:02.922Z,15.17
2018-11-21T01:26:33.209Z,17.13
2018-11-21T01:29:03.298Z,15.90
2018-11-21T01:31:32.724Z,15.70
2018-11-21T01:34:02.325Z,14.13
2018-11-21T01:36:33.928Z,15.00
2018-11-21T01:39:01.673Z,15.23
2018-11-21T01:41:31.048Z,15.87
2018-11-21T01:44:03.373Z,14.93
2018-11-21T01:46:33.670Z,16.07
2018-11-21T01:49:05.662Z,16.07
2018-11-21T01:51:35.690Z,15.80
2018-11-21T01:54:05.325Z,15.97
2018-11-21T01:56:35.191Z,16.40
2018-11-21T01:59:04.636Z,15.80
2018-11-21T02:05:12.220Z,12.77
2018-11-21T02:07:47.245Z,15.03
2018-11-21T02:10:17.349Z,16.03
2018-11-21T02:13:30.150Z,16.27
2018-11-21T02:16:17.994Z,15.93
2018-11-21T02:18:47.278Z,15.40
2018-11-21T02:25:07.446Z,15.33
2018-11-21T02:27:56.156Z,16.23
2018-11-21T02:30:25.866Z,11.97
2018-11-21T02:32:55.342Z,15.80
2018-11-21T02:35:24.778Z,16.60
2018-11-21T02:37:54.180Z,16.07
2018-11-21T02:47:15.892Z,15.23
2018-11-21T02:49:45.212Z,16.30
2018-11-21T02:52:14.512Z,18.37
2018-11-21T02:54:43.858Z,16.47
2018-11-21T02:57:18.278Z,17.20
2018-11-21T02:59:48.057Z,15.67
2018-11-21T03:02:20.248Z,17.37
2018-11-21T03:04:50.036Z,16.47
2018-11-21T03:07:19.185Z,17.03
2018-11-21T03:09:48.637Z,17.90
2018-11-21T03:12:18.151Z,17.00
2018-11-21T03:14:50.881Z,18.17
2018-11-21T03:17:20.492Z,17.90
2018-11-21T03:19:49.783Z,17.80
2018-11-21T03:22:19.160Z,17.20
2018-11-21T03:24:48.426Z,14.70
2018-11-21T03:27:17.659Z,17.23
2018-11-21T03:29:46.747Z,17.53
2018-11-21T03:32:16.058Z,17.23
2018-11-21T03:34:48.503Z,16.90
2018-11-21T03:37:17.899Z,15.73
2018-11-21T03:39:48.664Z,17.73
2018-11-21T03:42:18.112Z,14.90
2018-11-21T03:44:47.477Z,16.63
2018-11-21T03:47:16.855Z,12.67
2018-11-21T03:49:46.120Z,17.20
2018-11-21T03:52:15.818Z,16.77
2018-11-21T03:54:45.634Z,17.87
2018-11-21T03:57:15.465Z,18.27
2018-11-21T03:59:44.903Z,17.27
2018-11-21T04:02:14.218Z,17.53
2018-11-21T04:04:44.378Z,17.17
2018-11-21T04:07:13.901Z,18.37
2018-11-21T04:09:45.427Z,18.97
2018-11-21T04:12:21.048Z,18.67
2018-11-21T04:14:53.581Z,17.27
2018-11-21T04:17:23.473Z,18.17
2018-11-21T04:19:52.777Z,18.30
2018-11-21T04:22:22.284Z,18.93
2018-11-21T04:24:53.316Z,18.60
2018-11-21T04:27:22.436Z,19.43
2018-11-21T04:29:51.867Z,18.97
2018-11-21T04:32:21.316Z,17.73
2018-11-21T04:34:50.976Z,16.70
2018-11-21T04:37:22.205Z,18.37
2018-11-21T04:39:51.541Z,18.17
2018-11-21T04:42:20.746Z,16.70
2018-11-21T04:44:50.502Z,17.23
2018-11-21T04:47:22.901Z,17.60
2018-11-21T04:49:52.095Z,18.80
2018-11-21T04:52:21.686Z,17.87
2018-11-21T04:54:54.388Z,17.40
2018-11-21T04:57:26.762Z,17.17
2018-11-21T04:59:57.026Z,18.10
2018-11-21T05:02:26.873Z,18.23
2018-11-21T05:04:56.045Z,18.00
2018-11-21T05:07:25.872Z,17.43
2018-11-21T05:09:55.189Z,18.23
2018-11-21T05:12:24.337Z,18.33
2018-11-21T05:14:54.264Z,19.47
2018-11-21T05:17:28.154Z,17.03
2018-11-21T05:20:03.239Z,17.87
2018-11-21T05:22:32.650Z,18.00
2018-11-21T05:25:04.939Z,19.70
2018-11-21T05:27:35.885Z,18.03
2018-11-21T05:30:08.123Z,18.13
2018-11-21T05:32:38.318Z,17.17
2018-11-21T05:35:08.774Z,19.13
2018-11-21T05:37:40.032Z,16.87
2018-11-21T05:40:11.306Z,19.27
2018-11-21T05:42:43.433Z,18.23
2018-11-21T05:45:16.597Z,17.80
2018-11-21T05:47:49.401Z,19.97
2018-11-21T05:50:19.233Z,17.07
2018-11-21T05:52:55.161Z,19.83
2018-11-21T05:55:26.738Z,17.03
2018-11-21T05:57:58.940Z,18.97
2018-11-21T06:04:13.597Z,19.50
2018-11-21T06:06:43.694Z,18.30
2018-11-21T06:12:41.987Z,17.53
2018-11-21T06:15:14.661Z,18.77
2018-11-21T06:17:49.421Z,19.17
2018-11-21T06:20:25.189Z,19.00
2018-11-21T06:22:55.073Z,18.77
2018-11-21T06:25:25.274Z,18.50
2018-11-21T06:27:54.316Z,18.03
2018-11-21T06:34:10.416Z,17.33
2018-11-21T06:36:41.647Z,19.83
2018-11-21T06:39:13.702Z,17.97
2018-11-21T06:41:49.262Z,20.17
2018-11-21T06:44:18.794Z,18.83
2018-11-21T06:46:48.085Z,17.63
2018-11-21T06:49:17.903Z,19.23
2018-11-21T06:51:49.692Z,17.87
2018-11-21T06:54:21.540Z,18.23
2018-11-21T06:56:51.263Z,19.10
2018-11-21T06:59:23.294Z,19.00
2018-11-21T07:01:56.156Z,18.93
2018-11-21T07:04:25.869Z,17.53
2018-11-21T07:06:58.474Z,18.80
2018-11-21T07:09:27.798Z,19.43
2018-11-21T07:11:57.429Z,17.83
2018-11-21T07:14:26.890Z,19.17
2018-11-21T07:16:58.290Z,19.47
2018-11-21T07:19:27.655Z,17.77
2018-11-21T07:21:58.321Z,17.17
2018-11-21T07:24:29.589Z,14.67
2018-11-21T07:26:59.445Z,16.53
2018-11-21T07:29:34.479Z,17.70
2018-11-21T07:32:00.515Z,18.97
2018-11-21T07:34:30.465Z,19.43
2018-11-21T07:37:00.155Z,18.50
2018-11-21T07:39:29.664Z,18.47
2018-11-21T07:42:01.682Z,18.30
2018-11-21T07:44:35.347Z,18.23
2018-11-21T07:47:04.622Z,17.70
2018-11-21T07:49:34.028Z,18.87
2018-11-21T07:52:03.225Z,18.13
2018-11-21T07:54:37.113Z,19.17
2018-11-21T07:57:36.452Z,17.87
2018-11-21T08:01:04.480Z,18.73
2018-11-21T08:03:39.021Z,16.70
2018-11-21T08:06:26.896Z,17.00
2018-11-21T08:09:27.149Z,17.63
2018-11-21T08:12:06.751Z,17.93
2018-11-21T08:15:04.303Z,16.30
2018-11-21T08:17:51.659Z,18.10
2018-11-21T08:20:53.154Z,19.50
2018-11-21T08:23:47.582Z,18.13
2018-11-21T08:26:38.392Z,18.10
2018-11-21T08:29:08.067Z,17.90
2018-11-21T08:31:38.160Z,18.07
2018-11-21T08:34:07.631Z,18.97
2018-11-21T08:36:41.173Z,19.17
2018-11-21T08:39:14.289Z,16.67
2018-11-21T08:41:52.189Z,19.23
2018-11-21T08:44:24.741Z,18.33
2018-11-21T08:46:56.079Z,17.57
2018-11-21T08:49:25.798Z,18.83
2018-11-21T08:51:55.357Z,18.57
2018-11-21T08:54:26.668Z,14.97
2018-11-21T08:56:58.694Z,17.83
2018-11-21T08:59:28.537Z,16.07
2018-11-21T09:01:57.508Z,17.17
2018-11-21T09:04:27.460Z,18.33
2018-11-21T09:06:57.066Z,17.97
2018-11-21T09:09:27.977Z,18.90
2018-11-21T09:12:00.611Z,16.90
2018-11-21T09:14:30.812Z,17.67
2018-11-21T09:17:00.359Z,19.80
2018-11-21T09:19:30.114Z,18.43
2018-11-21T09:22:00.639Z,18.70
2018-11-21T09:24:32.750Z,18.30
2018-11-21T09:27:02.345Z,18.07
2018-11-21T09:29:34.955Z,18.90
2018-11-21T09:32:23.794Z,17.03
2018-11-21T09:34:56.417Z,18.67
2018-11-21T09:37:27.148Z,17.90
2018-11-21T09:39:55.364Z,16.73
2018-11-21T09:42:25.299Z,17.93
2018-11-21T09:44:54.908Z,17.00
2018-11-21T09:47:24.603Z,18.40
2018-11-21T09:49:54.674Z,17.37
2018-11-21T09:52:24.433Z,17.23
2018-11-21T09:54:53.928Z,18.13
2018-11-21T09:57:23.347Z,17.60
2018-11-21T09:59:58.067Z,17.40
2018-11-21T10:03:01.815Z,18.73
2018-11-21T10:05:35.176Z,17.13
2018-11-21T10:08:32.015Z,18.63
2018-11-21T10:11:02.719Z,18.53
2018-11-21T10:13:32.705Z,18.37
2018-11-21T10:16:25.011Z,17.47
2018-11-21T10:19:15.347Z,18.73
2018-11-21T10:21:49.584Z,17.03
2018-11-21T10:25:06.386Z,18.80
2018-11-21T10:27:35.574Z,19.07
2018-11-21T10:30:07.489Z,19.27
2018-11-21T10:32:38.196Z,18.03
2018-11-21T10:35:11.766Z,18.20
2018-11-21T10:37:43.406Z,18.30
2018-11-21T10:40:13.659Z,19.37
2018-11-21T10:42:44.566Z,18.67
2018-11-21T10:45:33.225Z,17.97
2018-11-21T10:48:22.038Z,18.00
2018-11-21T10:50:52.069Z,18.67
2018-11-21T10:53:21.949Z,19.23
2018-11-21T10:55:56.568Z,19.00
2018-11-21T10:58:26.005Z,18.50
2018-11-21T11:01:13.830Z,19.47
2018-11-21T11:03:57.807Z,18.43
2018-11-21T11:06:52.094Z,18.93
2018-11-21T11:09:42.913Z,18.63
2018-11-21T11:12:26.273Z,17.37
2018-11-21T11:15:13.440Z,19.00
2018-11-21T11:18:13.907Z,15.53
2018-11-21T11:24:30.427Z,19.07
2018-11-21T11:27:17.350Z,19.33
2018-11-21T11:30:20.975Z,17.53
2018-11-21T11:33:30.501Z,17.87
2018-11-21T11:36:22.001Z,18.80
2018-11-21T11:39:25.503Z,18.50
2018-11-21T11:42:13.678Z,17.40
2018-11-21T11:45:01.230Z,17.27
2018-11-21T11:47:48.637Z,17.73
2018-11-21T11:50:38.584Z,18.07
2018-11-21T11:53:26.264Z,19.20
2018-11-21T11:56:17.575Z,18.20
2018-11-21T11:59:04.831Z,18.77
2018-11-21T12:01:53.552Z,18.40
2018-11-21T12:04:40.765Z,19.17
2018-11-21T12:07:28.022Z,20.50
2018-11-21T12:10:14.881Z,18.77
2018-11-21T12:13:01.449Z,17.47
2018-11-21T12:15:51.673Z,18.83
2018-11-21T12:22:22.006Z,18.57
2018-11-21T12:25:11.144Z,18.30
2018-11-21T12:28:08.150Z,19.50
2018-11-21T12:30:57.560Z,18.70
2018-11-21T12:33:46.875Z,17.47
2018-11-21T12:36:34.089Z,19.57
2018-11-21T12:39:40.939Z,20.20
2018-11-21T12:42:41.765Z,18.73
2018-11-21T12:45:42.087Z,19.43
2018-11-21T12:48:44.762Z,19.40
2018-11-21T12:51:33.242Z,19.90
2018-11-21T12:54:21.352Z,17.50
2018-11-21T12:57:09.564Z,18.57
2018-11-21T13:00:02.153Z,18.37
2018-11-21T13:02:57.542Z,18.77
2018-11-21T13:05:44.274Z,17.03
2018-11-21T13:08:38.305Z,17.73
2018-11-21T13:11:29.229Z,17.30
2018-11-21T13:14:34.521Z,17.27
2018-11-21T13:21:12.285Z,18.63
2018-11-21T13:23:49.891Z,18.20
2018-11-21T13:26:56.557Z,17.33
2018-11-21T13:29:43.563Z,20.27
2018-11-21T13:32:30.102Z,18.20
2018-11-21T13:35:23.180Z,19.00
2018-11-21T13:38:08.920Z,15.00
2018-11-21T13:41:16.092Z,17.07
2018-11-21T13:44:02.861Z,19.63
2018-11-21T13:46:51.095Z,16.17
2018-11-21T13:49:40.467Z,18.40
2018-11-21T13:52:31.659Z,18.53
2018-11-21T13:55:05.602Z,20.40
2018-11-21T13:57:35.174Z,18.80
2018-11-21T14:00:04.942Z,18.90
2018-11-21T14:02:34.128Z,19.43
2018-11-21T14:05:03.511Z,18.40
2018-11-21T14:07:32.764Z,17.67
2018-11-21T14:10:03.779Z,18.37
2018-11-21T14:12:55.801Z,18.43
2018-11-21T14:15:25.994Z,12.40
2018-11-21T14:17:55.632Z,18.97
2018-11-21T14:20:25.473Z,14.43
2018-11-21T14:23:14.590Z,18.63
2018-11-21T14:25:45.194Z,18.77
2018-11-21T14:28:15.273Z,19.57
2018-11-21T14:31:15.066Z,18.07
2018-11-21T14:33:44.603Z,22.75
2018-11-21T14:36:13.875Z,20.07
2018-11-21T14:38:43.204Z,18.33
2018-11-21T14:41:14.376Z,18.03
2018-11-21T14:43:43.874Z,19.87
2018-11-21T14:46:13.337Z,14.70
2018-11-21T14:48:43.401Z,19.30
2018-11-21T14:51:12.955Z,18.50
2018-11-21T14:53:43.027Z,17.97
2018-11-21T14:56:12.034Z,14.60
2018-11-21T14:58:42.282Z,18.43
2018-11-21T15:01:11.854Z,18.83
2018-11-21T15:03:44.675Z,15.63
2018-11-21T15:06:17.450Z,18.47
2018-11-21T15:09:08.379Z,18.63
2018-11-21T15:11:56.936Z,18.00
2018-11-21T15:14:46.028Z,18.27
2018-11-21T15:17:19.519Z,17.60
2018-11-21T15:19:48.908Z,18.37
2018-11-21T15:22:20.885Z,16.23
2018-11-21T15:24:50.492Z,18.47
2018-11-21T15:27:20.005Z,18.47
2018-11-21T15:29:50.340Z,15.17
2018-11-21T15:32:22.534Z,18.57
2018-11-21T15:34:59.743Z,18.23
2018-11-21T15:37:29.512Z,18.63
2018-11-21T15:39:58.761Z,17.70
2018-11-21T15:42:28.738Z,18.37
2018-11-21T15:44:57.881Z,18.80
2018-11-21T15:47:28.510Z,18.83
2018-11-21T15:49:58.087Z,19.23
2018-11-21T15:52:27.367Z,18.90
2018-11-21T15:54:58.324Z,19.00
2018-11-21T15:57:27.734Z,17.17
2018-11-21T15:59:59.576Z,19.47
2018-11-21T16:02:28.830Z,18.03
2018-11-21T16:04:59.927Z,19.30
2018-11-21T16:07:31.386Z,18.27
2018-11-21T16:10:09.659Z,19.23
2018-11-21T16:12:32.659Z,19.63
2018-11-21T16:15:02.780Z,20.20
2018-11-21T16:17:35.234Z,19.13
2018-11-21T16:23:52.283Z,20.93
2018-11-21T16:39:34.944Z,19.83
2018-11-21T16:46:16.485Z,19.97
2018-11-21T16:48:47.794Z,19.73
2018-11-21T16:51:18.575Z,19.30
2018-11-21T16:53:49.130Z,20.70
2018-11-21T16:56:19.862Z,22.27
2018-11-21T16:59:16.750Z,21.93
2018-11-21T17:01:46.280Z,21.33
2018-11-21T17:04:17.297Z,21.40
2018-11-21T17:06:46.710Z,21.10
2018-11-21T17:09:16.164Z,21.20
2018-11-21T17:11:46.418Z,21.37
2018-11-21T17:14:19.572Z,20.43
2018-11-21T17:16:48.831Z,20.60
2018-11-21T17:19:17.983Z,20.20
2018-11-21T17:21:47.562Z,18.07
2018-11-21T17:24:20.945Z,19.73
2018-11-21T17:26:50.409Z,20.30
2018-11-21T17:29:19.757Z,21.00
2018-11-21T17:31:49.007Z,20.03
2018-11-21T17:34:18.546Z,18.40
2018-11-21T17:36:47.554Z,22.83
2018-11-21T17:39:16.912Z,23.23
2018-11-21T17:41:46.352Z,22.07
2018-11-21T17:44:18.635Z,20.93
2018-11-21T17:46:48.756Z,20.90
2018-11-21T17:49:19.227Z,22.03
2018-11-21T17:51:52.080Z,21.47
2018-11-21T17:54:21.643Z,20.83
2018-11-21T17:56:52.029Z,21.17
2018-11-21T17:59:21.283Z,21.70
2018-11-21T18:01:56.164Z,19.40
2018-11-21T18:04:26.453Z,21.57
2018-11-21T18:06:55.738Z,21.33
2018-11-21T18:09:25.175Z,22.57
2018-11-21T18:11:54.481Z,24.73
2018-11-21T18:14:23.974Z,19.20
2018-11-21T18:16:58.648Z,21.77
2018-11-21T18:19:27.880Z,21.93
2018-11-21T18:21:57.544Z,21.30
2018-11-21T18:24:26.684Z,21.27
2018-11-21T18:26:59.241Z,21.77
2018-11-21T18:29:29.725Z,21.13
2018-11-21T18:31:59.522Z,21.13
2018-11-21T18:34:32.219Z,20.63
2018-11-21T18:37:01.804Z,21.63
2018-11-21T18:39:33.626Z,21.67
2018-11-21T18:42:06.153Z,21.17
2018-11-21T18:45:37.391Z,21.57
2018-11-21T18:47:47.014Z,22.33
2018-11-21T18:50:17.148Z,22.67
2018-11-21T18:52:48.026Z,21.43
2018-11-21T18:55:20.122Z,19.63
2018-11-21T18:58:17.170Z,21.67
2018-11-21T19:00:49.124Z,20.23
2018-11-21T19:03:18.141Z,23.40
2018-11-21T19:05:47.262Z,22.97
2018-11-21T19:08:16.566Z,22.50
2018-11-21T19:10:45.787Z,22.37
2018-11-21T19:13:15.140Z,21.87
2018-11-21T19:15:44.616Z,21.57
2018-11-21T19:18:13.866Z,22.03
2018-11-21T19:20:42.901Z,23.50
2018-11-21T19:23:12.099Z,22.33
2018-11-21T19:25:41.091Z,21.57
2018-11-21T19:28:10.449Z,21.93
2018-11-21T19:30:39.838Z,21.63
2018-11-21T19:33:09.324Z,22.93
2018-11-21T19:35:38.401Z,23.27
2018-11-21T19:38:07.500Z,22.97
2018-11-21T19:40:40.962Z,22.83
2018-11-21T19:43:09.540Z,22.53
2018-11-21T19:45:39.223Z,22.57
2018-11-21T19:48:08.334Z,21.77
2018-11-21T19:50:37.749Z,21.40
2018-11-21T19:53:06.774Z,20.63
2018-11-21T19:55:37.663Z,22.67
2018-11-21T19:58:07.187Z,21.33
2018-11-21T20:00:40.578Z,24.13
2018-11-21T20:03:09.968Z,19.30
2018-11-21T20:05:39.815Z,21.40
2018-11-21T20:08:13.995Z,21.47
2018-11-21T20:10:42.985Z,23.73
2018-11-21T20:13:13.088Z,19.90
2018-11-21T20:15:42.596Z,19.83
2018-11-21T20:18:11.797Z,20.80
2018-11-21T20:24:09.222Z,20.47
2018-11-21T20:26:38.646Z,19.10
2018-11-21T20:29:07.925Z,20.53
2018-11-21T20:31:39.451Z,19.90
2018-11-21T20:34:08.859Z,18.27
2018-11-21T20:36:39.163Z,20.23
2018-11-21T20:39:14.013Z,20.83
2018-11-21T20:41:43.119Z,17.07
2018-11-21T20:54:04.566Z,18.63
2018-11-21T20:56:34.423Z,21.93
2018-11-21T20:59:04.955Z,20.43
2018-11-21T21:01:35.020Z,20.10
2018-11-21T21:04:10.488Z,21.23
2018-11-21T21:06:45.833Z,21.70
2018-11-21T21:09:17.148Z,21.37
2018-11-21T21:11:51.785Z,20.50
2018-11-21T21:14:21.407Z,20.80
2018-11-21T21:16:54.512Z,18.27
2018-11-21T21:19:24.261Z,21.10
2018-11-21T21:21:56.718Z,22.87
2018-11-21T21:24:26.375Z,21.10
2018-11-21T21:26:56.262Z,20.73
2018-11-21T21:29:27.419Z,20.43
2018-11-21T21:31:58.051Z,21.77
2018-11-21T21:34:27.255Z,21.97
2018-11-21T21:36:59.782Z,20.50
2018-11-21T21:39:29.700Z,20.40
2018-11-21T21:41:58.848Z,21.03
2018-11-21T21:44:28.765Z,20.93
2018-11-21T21:46:58.323Z,21.63
2018-11-21T21:49:27.739Z,21.23
2018-11-21T21:55:38.724Z,20.13
2018-11-21T21:58:09.145Z,20.00
2018-11-21T22:00:38.225Z,20.33
2018-11-21T22:03:08.039Z,19.80
2018-11-21T22:05:39.632Z,21.60
2018-11-21T22:08:16.873Z,21.43
2018-11-21T22:10:48.215Z,21.10
2018-11-21T22:13:19.142Z,20.77
2018-11-21T22:15:48.860Z,20.43
2018-11-21T22:18:21.559Z,20.03
2018-11-21T22:20:51.154Z,18.00
2018-11-21T22:23:20.336Z,20.47
2018-11-21T22:25:53.079Z,16.63
2018-11-21T22:28:22.221Z,20.00
2018-11-21T22:30:51.826Z,13.63
2018-11-21T22:33:24.432Z,19.70
2018-11-21T22:35:54.349Z,17.93
2018-11-21T22:38:30.799Z,18.70
2018-11-21T22:40:56.495Z,19.07
2018-11-21T22:43:26.384Z,18.13
2018-11-21T22:45:55.883Z,17.60
2018-11-21T22:48:25.599Z,19.43
2018-11-21T22:50:56.335Z,18.33
2018-11-21T22:53:24.681Z,20.23
2018-11-21T22:55:54.256Z,18.57
2018-11-21T22:58:27.651Z,18.27
2018-11-21T23:00:57.585Z,20.93
2018-11-21T23:03:28.202Z,18.73
2018-11-21T23:05:57.989Z,18.93
2018-11-21T23:08:29.093Z,20.20
2018-11-21T23:10:59.441Z,18.87
2018-11-21T23:13:29.091Z,16.60
2018-11-21T23:16:01.704Z,19.33
2018-11-21T23:18:31.648Z,17.93
2018-11-21T23:21:02.970Z,19.33
2018-11-21T23:23:36.942Z,19.13
2018-11-21T23:26:06.361Z,20.27
2018-11-21T23:28:35.834Z,19.43
2018-11-21T23:31:06.711Z,19.53
2018-11-21T23:33:37.212Z,19.47
2018-11-21T23:36:07.195Z,19.70
2018-11-21T23:38:36.824Z,18.40
2018-11-21T23:41:08.694Z,19.93
2018-11-21T23:43:40.690Z,18.47
2018-11-21T23:46:10.604Z,18.93
2018-11-21T23:48:43.350Z,19.03
2018-11-21T23:51:13.097Z,20.13
2018-11-21T23:53:42.806Z,18.93
2018-11-21T23:56:12.917Z,18.70
2018-11-21T23:58:42.494Z,19.37
